Terminal Aerodrome Forecast
Issued by NWS Denver/Boulder, CO

Home | Current Version | Previous Version | Text Only | Print | Product List | Glossary On
Versions: 1 2 3 4 5 6 7 8 9 10 11 12 13 14 15 16 17 18 19 20 21 22 23 24 25 26 27 28 29 30 31 32 33 34 35 36 37
000
FTUS45 KBOU 222051 AAA
TAFDEN
TAF AMD
KDEN 222051Z 2221/2324 05016G22KT P6SM FEW080 SCT150 BKN200
      TEMPO 2222/2224 VRB15G30KT -TSRA BKN060CB
     FM230000 09011KT P6SM SCT070 BKN090 BKN120
      TEMPO 2301/2303 VRB15G30KT -TSRA BKN060CB
     FM230300 08011KT P6SM VCSH SCT060 BKN090
     FM230800 04009KT P6SM SCT025 OVC050
     FM231100 36020G27KT 4SM BR BKN010 OVC020
      TEMPO 2311/2312 2SM -SHRA BKN008 OVC015
     FM231600 03010KT P6SM SCT020 OVC035
     FM232200 11006KT P6SM SCT040 BKN060=

USA.gov is the U.S. government's official web portal to all federal, state and local government web resources and services.